createdAt,value
2023-03-22T00:00:25.191Z,45.50
2023-03-22T00:01:25.178Z,47.60
2023-03-22T00:02:25.217Z,48.50
2023-03-22T00:03:25.199Z,48.60
2023-03-22T00:04:25.168Z,49.80
2023-03-22T00:05:25.179Z,51.90
2023-03-22T00:06:25.179Z,49.20
2023-03-22T00:07:25.185Z,51.70
2023-03-22T00:08:25.141Z,51.60
2023-03-22T00:09:25.163Z,50.10
2023-03-22T00:10:25.153Z,50.00
2023-03-22T00:11:25.145Z,49.10
2023-03-22T00:12:25.119Z,51.40
2023-03-22T00:13:25.113Z,50.00
2023-03-22T00:14:25.165Z,51.10
2023-03-22T00:15:25.128Z,54.00
2023-03-22T00:16:25.111Z,49.60
2023-03-22T00:17:25.088Z,51.40
2023-03-22T00:18:25.082Z,47.70
2023-03-22T00:19:25.112Z,47.50
2023-03-22T00:20:25.075Z,49.20
2023-03-22T00:21:25.050Z,46.80
2023-03-22T00:22:25.058Z,47.90
2023-03-22T00:23:25.060Z,46.80
2023-03-22T00:24:25.106Z,48.00
2023-03-22T00:25:25.093Z,49.00
2023-03-22T00:26:25.093Z,49.10
2023-03-22T00:27:25.034Z,52.30
2023-03-22T00:28:25.032Z,48.30
2023-03-22T00:29:25.055Z,51.30
2023-03-22T00:30:25.047Z,48.00
2023-03-22T00:31:25.049Z,51.30
2023-03-22T00:32:25.021Z,51.10
2023-03-22T00:33:24.995Z,40.90
2023-03-22T00:34:24.995Z,38.20
2023-03-22T00:35:25.074Z,38.10
2023-03-22T00:36:24.997Z,34.40
2023-03-22T00:37:24.975Z,35.20
2023-03-22T00:38:35.931Z,32.80
2023-03-22T00:39:27.022Z,33.50
2023-03-22T00:40:25.035Z,34.60
2023-03-22T00:41:24.987Z,36.30
2023-03-22T00:42:24.963Z,33.20
2023-03-22T00:43:24.956Z,34.50
2023-03-22T00:44:25.012Z,38.10
2023-03-22T00:45:24.949Z,34.20
2023-03-22T00:46:24.994Z,34.10
2023-03-22T00:47:24.953Z,31.50
2023-03-22T00:48:24.996Z,30.90
2023-03-22T00:49:24.920Z,31.30
2023-03-22T00:50:24.916Z,30.70
2023-03-22T00:51:24.954Z,27.90
2023-03-22T00:52:24.961Z,31.80
2023-03-22T00:53:24.944Z,32.90
2023-03-22T00:54:24.950Z,32.30
2023-03-22T00:55:24.932Z,30.80
2023-03-22T00:56:24.886Z,29.90
2023-03-22T00:57:24.905Z,29.90
2023-03-22T00:58:24.878Z,32.30
2023-03-22T00:59:24.920Z,30.20
2023-03-22T01:00:24.856Z,30.30
2023-03-22T01:01:24.913Z,31.50
2023-03-22T01:02:24.882Z,30.30
2023-03-22T01:03:24.896Z,31.40
2023-03-22T01:04:24.873Z,33.10
2023-03-22T01:05:24.816Z,35.10
2023-03-22T01:06:24.826Z,35.70
2023-03-22T01:07:24.837Z,35.20
2023-03-22T01:08:24.814Z,33.40
2023-03-22T01:09:24.856Z,34.40
2023-03-22T01:10:24.794Z,34.80
2023-03-22T01:11:24.791Z,33.60
2023-03-22T01:12:24.805Z,33.00
2023-03-22T01:13:24.852Z,30.00
2023-03-22T01:14:24.790Z,30.70
2023-03-22T01:15:24.804Z,31.90
2023-03-22T01:16:24.857Z,31.50
2023-03-22T01:17:24.780Z,32.30
2023-03-22T01:18:24.812Z,30.20
2023-03-22T01:19:24.775Z,31.70
2023-03-22T01:20:24.728Z,37.30
2023-03-22T01:21:24.737Z,32.00
2023-03-22T01:22:24.791Z,28.40
2023-03-22T01:23:24.700Z,32.40
2023-03-22T01:24:24.722Z,32.10
2023-03-22T01:25:24.736Z,33.40
2023-03-22T01:26:24.716Z,34.00
2023-03-22T01:27:24.698Z,35.20
2023-03-22T01:28:26.979Z,39.60
2023-03-22T01:29:24.699Z,37.80
2023-03-22T01:30:24.821Z,38.70
2023-03-22T01:31:24.672Z,38.80
2023-03-22T01:32:24.693Z,38.70
2023-03-22T01:33:24.672Z,37.20
2023-03-22T01:34:24.649Z,37.70
2023-03-22T01:35:24.688Z,32.40
2023-03-22T01:36:24.681Z,29.20
2023-03-22T01:37:24.646Z,29.90
2023-03-22T01:38:24.642Z,30.50
2023-03-22T01:39:24.627Z,31.40
2023-03-22T01:40:24.670Z,36.60
2023-03-22T01:41:24.662Z,33.20
2023-03-22T01:42:24.741Z,36.70
2023-03-22T01:43:24.599Z,36.00
2023-03-22T01:44:24.663Z,32.90
2023-03-22T01:45:24.647Z,32.20
2023-03-22T01:46:24.642Z,35.20
2023-03-22T01:47:24.578Z,32.90
2023-03-22T01:48:24.654Z,32.30
2023-03-22T01:49:24.682Z,33.90
2023-03-22T01:50:24.580Z,35.30
2023-03-22T01:51:24.586Z,31.90
2023-03-22T01:52:24.558Z,32.40
2023-03-22T01:53:24.548Z,32.90
2023-03-22T01:54:24.563Z,36.00
2023-03-22T01:55:24.530Z,39.40
2023-03-22T01:56:24.549Z,39.20
2023-03-22T01:57:24.551Z,35.70
2023-03-22T01:58:24.553Z,36.20
2023-03-22T01:59:24.572Z,37.70
2023-03-22T02:00:24.515Z,38.00
2023-03-22T02:01:24.554Z,36.80
2023-03-22T02:02:24.570Z,37.40
2023-03-22T02:03:24.480Z,34.40
2023-03-22T02:04:24.573Z,42.30
2023-03-22T02:05:24.483Z,39.00
2023-03-22T02:06:24.504Z,40.90
2023-03-22T02:07:24.501Z,40.50
2023-03-22T02:08:24.489Z,41.30
2023-03-22T02:09:24.477Z,43.00
2023-03-22T02:10:24.452Z,41.20
2023-03-22T02:11:24.491Z,36.40
2023-03-22T02:12:24.460Z,40.90
2023-03-22T02:13:24.438Z,35.90
2023-03-22T02:14:26.816Z,40.90
2023-03-22T02:15:24.435Z,40.10
2023-03-22T02:16:24.529Z,42.90
2023-03-22T02:17:24.414Z,43.10
2023-03-22T02:18:24.435Z,38.90
2023-03-22T02:19:24.405Z,38.00
2023-03-22T02:20:24.393Z,39.70
2023-03-22T02:21:24.404Z,38.90
2023-03-22T02:22:24.378Z,39.20
2023-03-22T02:23:24.444Z,40.00
2023-03-22T02:24:24.408Z,44.90
2023-03-22T02:25:24.348Z,37.90
2023-03-22T02:26:24.356Z,40.70
2023-03-22T02:27:24.351Z,40.30
2023-03-22T02:28:24.338Z,42.70
2023-03-22T02:29:24.426Z,47.90
2023-03-22T02:30:24.344Z,43.40
2023-03-22T02:31:24.395Z,51.70
2023-03-22T02:32:24.319Z,48.80
2023-03-22T02:33:24.337Z,51.30
2023-03-22T02:34:24.371Z,51.90
2023-03-22T02:35:24.337Z,43.30
2023-03-22T02:36:24.309Z,48.40
2023-03-22T02:37:24.295Z,52.80
2023-03-22T02:38:24.317Z,53.70
2023-03-22T02:39:24.270Z,54.10
2023-03-22T02:40:25.334Z,52.40
2023-03-22T02:41:24.308Z,50.30
2023-03-22T02:42:24.273Z,45.80
2023-03-22T02:43:24.305Z,44.40
2023-03-22T02:44:24.270Z,49.00
2023-03-22T02:45:24.346Z,45.50
2023-03-22T02:46:24.274Z,45.90
2023-03-22T02:47:24.269Z,47.40
2023-03-22T02:48:24.254Z,48.80
2023-03-22T02:49:24.236Z,50.10
2023-03-22T02:50:24.282Z,50.10
2023-03-22T02:51:24.260Z,50.30
2023-03-22T02:52:24.221Z,49.80
2023-03-22T02:53:24.235Z,56.10
2023-03-22T02:54:24.209Z,53.10
2023-03-22T02:55:24.186Z,51.30
2023-03-22T02:56:24.253Z,52.70
2023-03-22T02:57:24.228Z,55.60
2023-03-22T02:58:24.180Z,56.00
2023-03-22T02:59:24.187Z,56.50
2023-03-22T03:00:24.165Z,55.30
2023-03-22T03:01:24.266Z,57.80
2023-03-22T03:02:24.254Z,57.70
2023-03-22T03:03:24.161Z,56.10
2023-03-22T03:04:24.165Z,51.80
2023-03-22T03:05:24.149Z,55.80
2023-03-22T03:06:24.145Z,63.90
2023-03-22T03:07:24.188Z,65.10
2023-03-22T03:08:24.122Z,65.00
2023-03-22T03:09:24.120Z,61.80
2023-03-22T03:10:24.120Z,67.40
2023-03-22T03:11:24.136Z,64.70
2023-03-22T03:12:24.111Z,66.50
2023-03-22T03:13:24.101Z,69.60
2023-03-22T03:14:24.122Z,68.20
2023-03-22T03:15:24.104Z,67.00
2023-03-22T03:16:24.127Z,68.10
2023-03-22T03:17:24.133Z,69.60
2023-03-22T03:18:24.065Z,70.10
2023-03-22T03:19:24.057Z,69.10
2023-03-22T03:20:24.061Z,73.00
2023-03-22T03:21:25.142Z,76.50
2023-03-22T03:22:24.087Z,73.30
2023-03-22T03:23:24.044Z,72.80
2023-03-22T03:24:24.040Z,73.70
2023-03-22T03:25:24.037Z,69.40
2023-03-22T03:26:24.085Z,72.70
2023-03-22T03:27:24.146Z,70.00
2023-03-22T03:28:24.108Z,70.70
2023-03-22T03:29:24.013Z,73.30
2023-03-22T03:30:24.020Z,69.80
2023-03-22T03:31:24.084Z,72.40
2023-03-22T03:32:23.978Z,69.60
2023-03-22T03:33:24.026Z,69.50
2023-03-22T03:34:23.997Z,60.30
2023-03-22T03:35:24.008Z,58.80
2023-03-22T03:36:24.022Z,62.60
2023-03-22T03:37:23.998Z,69.50
2023-03-22T03:38:23.962Z,70.60
2023-03-22T03:39:23.967Z,63.80
2023-03-22T03:40:23.970Z,63.80
2023-03-22T03:41:23.935Z,66.90
2023-03-22T03:42:23.966Z,77.90
2023-03-22T03:43:23.924Z,87.30
2023-03-22T03:44:23.992Z,82.30
2023-03-22T03:45:23.902Z,87.30
2023-03-22T03:46:23.925Z,81.70
2023-03-22T03:47:23.938Z,89.80
2023-03-22T03:48:23.995Z,79.90
2023-03-22T03:49:23.927Z,75.70
2023-03-22T03:50:23.893Z,79.20
2023-03-22T03:51:23.909Z,75.10
2023-03-22T03:52:23.891Z,75.00
2023-03-22T03:53:23.910Z,74.90
2023-03-22T03:54:23.913Z,74.30
2023-03-22T03:55:23.900Z,73.00
2023-03-22T03:56:23.852Z,76.40
2023-03-22T03:57:23.832Z,78.10
2023-03-22T03:58:23.878Z,71.30
2023-03-22T03:59:23.860Z,59.00
2023-03-22T04:00:23.926Z,66.00
2023-03-22T04:01:23.879Z,70.60
2023-03-22T04:02:23.903Z,71.50
2023-03-22T04:03:23.854Z,65.70
2023-03-22T04:04:23.854Z,65.90
2023-03-22T04:05:23.844Z,67.60
2023-03-22T04:06:23.837Z,67.00
2023-03-22T04:07:23.802Z,65.60
2023-03-22T04:08:23.779Z,68.70
2023-03-22T04:09:23.912Z,65.20
2023-03-22T04:10:23.819Z,71.70
2023-03-22T04:11:23.804Z,67.50
2023-03-22T04:12:23.758Z,67.80
2023-03-22T04:13:23.758Z,71.00
2023-03-22T04:14:23.741Z,70.90
2023-03-22T04:15:23.777Z,64.50
2023-03-22T04:16:23.893Z,63.20
2023-03-22T04:17:23.747Z,68.90
2023-03-22T04:18:23.745Z,70.20
2023-03-22T04:19:23.713Z,71.70
2023-03-22T04:20:23.789Z,70.90
2023-03-22T04:21:23.722Z,71.90
2023-03-22T04:22:23.740Z,69.60
2023-03-22T04:23:24.518Z,68.90
2023-03-22T04:24:23.726Z,67.70
2023-03-22T04:25:23.694Z,66.20
2023-03-22T04:26:26.140Z,68.70
2023-03-22T04:27:23.678Z,67.50
2023-03-22T04:28:23.651Z,64.20
2023-03-22T04:29:23.667Z,68.30
2023-03-22T04:30:23.664Z,73.70
2023-03-22T04:31:23.698Z,71.00
2023-03-22T04:32:23.633Z,69.80
2023-03-22T04:33:23.761Z,69.00
2023-03-22T04:34:23.669Z,64.30
2023-03-22T04:35:23.686Z,64.60
2023-03-22T04:36:23.644Z,64.40
2023-03-22T04:37:23.642Z,71.30
2023-03-22T04:38:23.665Z,72.10
2023-03-22T04:39:23.624Z,72.80
2023-03-22T04:40:23.604Z,76.20
2023-03-22T04:41:23.593Z,77.10
2023-03-22T04:42:23.606Z,76.90
2023-03-22T04:43:23.624Z,78.70
2023-03-22T04:44:23.620Z,79.20
2023-03-22T04:45:23.573Z,77.80
2023-03-22T04:46:23.615Z,75.80
2023-03-22T04:47:23.604Z,79.00
2023-03-22T04:48:23.664Z,83.00
2023-03-22T04:49:23.558Z,83.00
2023-03-22T04:50:23.605Z,81.20
2023-03-22T04:51:23.562Z,82.90
2023-03-22T04:52:23.560Z,82.00
2023-03-22T04:53:23.570Z,76.20
2023-03-22T04:54:23.575Z,75.90
2023-03-22T04:55:23.608Z,76.60
2023-03-22T04:56:23.530Z,79.00
2023-03-22T04:57:23.507Z,74.40
2023-03-22T04:58:23.520Z,75.10
2023-03-22T04:59:23.590Z,74.60
2023-03-22T05:00:23.538Z,71.50
2023-03-22T05:01:23.555Z,76.60
2023-03-22T05:02:23.568Z,77.10
2023-03-22T05:03:23.510Z,81.20
2023-03-22T05:04:23.482Z,78.40
2023-03-22T05:05:23.619Z,77.70
2023-03-22T05:06:23.500Z,81.80
2023-03-22T05:07:23.469Z,83.70
2023-03-22T05:08:23.473Z,87.50
2023-03-22T05:09:23.734Z,85.40
2023-03-22T05:10:24.495Z,83.20
2023-03-22T05:11:23.473Z,80.40
2023-03-22T05:12:23.440Z,86.00
2023-03-22T05:13:23.448Z,94.00
2023-03-22T05:14:23.476Z,95.00
2023-03-22T05:15:23.482Z,84.50
2023-03-22T05:16:23.456Z,80.60
2023-03-22T05:17:23.444Z,83.00
2023-03-22T05:18:23.417Z,84.70
2023-03-22T05:19:23.391Z,80.60
2023-03-22T05:20:23.411Z,82.40
2023-03-22T05:21:23.377Z,80.30
2023-03-22T05:22:23.385Z,84.50
2023-03-22T05:23:23.392Z,87.30
2023-03-22T05:24:23.365Z,86.40
2023-03-22T05:25:23.385Z,85.70
2023-03-22T05:26:23.389Z,86.30
2023-03-22T05:27:23.380Z,86.60
2023-03-22T05:28:23.381Z,83.60
2023-03-22T05:29:23.361Z,84.20
2023-03-22T05:30:23.331Z,85.30
2023-03-22T05:31:23.404Z,84.80
2023-03-22T05:32:23.399Z,83.90
2023-03-22T05:33:23.354Z,85.40
2023-03-22T05:34:23.311Z,84.80
2023-03-22T05:35:23.319Z,84.50
2023-03-22T05:36:23.324Z,84.00
2023-03-22T05:37:23.315Z,83.40
2023-03-22T05:38:23.357Z,83.70
2023-03-22T05:39:23.300Z,84.70
2023-03-22T05:40:23.283Z,81.40
2023-03-22T05:41:23.482Z,80.30
2023-03-22T05:42:23.276Z,80.80
2023-03-22T05:43:23.333Z,85.80
2023-03-22T05:44:23.274Z,83.40
2023-03-22T05:45:23.276Z,81.00
2023-03-22T05:46:23.378Z,81.60
2023-03-22T05:47:23.258Z,82.70
2023-03-22T05:48:23.318Z,78.80
2023-03-22T05:49:23.254Z,77.60
2023-03-22T05:50:23.247Z,77.10
2023-03-22T05:51:23.245Z,77.40
2023-03-22T05:52:23.234Z,76.20
2023-03-22T05:53:23.235Z,72.80
2023-03-22T05:54:23.281Z,70.40
2023-03-22T05:55:23.217Z,71.60
2023-03-22T05:56:23.229Z,73.30
2023-03-22T05:57:23.221Z,69.90
2023-03-22T05:58:23.199Z,70.90
2023-03-22T05:59:23.218Z,71.90
2023-03-22T06:00:23.277Z,70.30
2023-03-22T06:01:23.217Z,71.60
2023-03-22T06:02:23.178Z,70.60
2023-03-22T06:03:23.219Z,68.30
2023-03-22T06:04:23.168Z,68.50
2023-03-22T06:05:23.189Z,66.10
2023-03-22T06:06:23.151Z,66.90
2023-03-22T06:07:23.177Z,65.80
2023-03-22T06:08:26.053Z,65.70
2023-03-22T06:09:23.171Z,64.20
2023-03-22T06:10:23.182Z,63.50
2023-03-22T06:11:23.128Z,63.70
2023-03-22T06:12:23.133Z,64.00
2023-03-22T06:13:23.194Z,62.60
2023-03-22T06:14:23.123Z,64.20
2023-03-22T06:15:23.152Z,64.20
2023-03-22T06:16:23.161Z,67.00
2023-03-22T06:17:23.109Z,63.30
2023-03-22T06:18:23.103Z,63.10
2023-03-22T06:19:23.083Z,63.30
2023-03-22T06:20:23.095Z,60.50
2023-03-22T06:21:23.099Z,62.50
2023-03-22T06:22:23.083Z,61.60
2023-03-22T06:23:23.060Z,60.40
2023-03-22T06:24:23.082Z,57.90
2023-03-22T06:25:23.073Z,57.00
2023-03-22T06:26:23.105Z,58.00
2023-03-22T06:27:23.174Z,56.30
2023-03-22T06:28:23.038Z,54.20
2023-03-22T06:29:23.059Z,53.60
2023-03-22T06:30:23.137Z,55.40
2023-03-22T06:31:23.043Z,54.90
2023-03-22T06:32:23.034Z,52.00
2023-03-22T06:33:23.050Z,51.20
2023-03-22T06:34:23.002Z,50.40
2023-03-22T06:35:23.071Z,49.70
2023-03-22T06:36:23.051Z,48.10
2023-03-22T06:37:22.999Z,49.20
2023-03-22T06:38:23.025Z,48.70
2023-03-22T06:39:23.005Z,48.70
2023-03-22T06:40:22.987Z,49.30
2023-03-22T06:41:22.974Z,48.70
2023-03-22T06:42:22.964Z,47.50
2023-03-22T06:43:22.987Z,46.70
2023-03-22T06:44:22.961Z,46.60
2023-03-22T06:45:22.951Z,45.70
2023-03-22T06:46:23.052Z,44.30
2023-03-22T06:47:22.969Z,42.50
2023-03-22T06:48:23.021Z,41.90
2023-03-22T06:49:22.950Z,37.60
2023-03-22T06:50:22.939Z,34.20
2023-03-22T06:51:22.939Z,33.80
2023-03-22T06:52:22.990Z,32.10
2023-03-22T06:53:22.938Z,30.80
2023-03-22T06:54:22.943Z,30.40
2023-03-22T06:55:22.967Z,28.00
2023-03-22T06:56:22.929Z,25.20
2023-03-22T06:57:22.899Z,26.80
2023-03-22T06:58:22.878Z,25.20
2023-03-22T06:59:22.897Z,24.80
2023-03-22T07:00:22.932Z,23.40
2023-03-22T07:01:22.961Z,23.30
2023-03-22T07:02:22.914Z,22.20
2023-03-22T07:03:22.907Z,22.10
2023-03-22T07:04:22.951Z,21.90
2023-03-22T07:05:22.897Z,21.10
2023-03-22T07:06:22.888Z,20.90
2023-03-22T07:07:22.884Z,20.80
2023-03-22T07:08:22.839Z,20.30
2023-03-22T07:09:22.907Z,19.50
2023-03-22T07:10:22.899Z,20.00
2023-03-22T07:11:22.855Z,20.90
2023-03-22T07:12:22.892Z,19.70
2023-03-22T07:13:22.872Z,20.20
2023-03-22T07:14:22.876Z,18.50
2023-03-22T07:15:22.859Z,19.70
2023-03-22T07:16:23.978Z,18.50
2023-03-22T07:17:22.953Z,19.00
2023-03-22T07:18:22.788Z,18.10
2023-03-22T07:19:22.805Z,17.40
2023-03-22T07:20:22.837Z,18.30
2023-03-22T07:21:22.816Z,17.20
2023-03-22T07:22:22.813Z,16.90
2023-03-22T07:23:22.801Z,17.10
2023-03-22T07:24:22.801Z,17.50
2023-03-22T07:25:22.837Z,17.80
2023-03-22T07:26:22.773Z,16.30
2023-03-22T07:27:22.800Z,15.70
2023-03-22T07:28:22.761Z,17.20
2023-03-22T07:29:22.766Z,16.70
2023-03-22T07:30:22.773Z,16.00
2023-03-22T07:31:22.777Z,16.10
2023-03-22T07:32:22.879Z,15.90
2023-03-22T07:33:22.747Z,16.20
2023-03-22T07:34:22.769Z,15.70
2023-03-22T07:35:24.983Z,16.00
2023-03-22T07:36:22.724Z,16.30
2023-03-22T07:37:22.685Z,16.20
2023-03-22T07:38:22.734Z,15.80
2023-03-22T07:39:22.704Z,15.80
2023-03-22T07:40:22.686Z,15.60
2023-03-22T07:41:22.704Z,16.40
2023-03-22T07:42:22.681Z,14.60
2023-03-22T07:43:22.728Z,16.50
2023-03-22T07:44:22.716Z,14.60
2023-03-22T07:45:22.731Z,14.50
2023-03-22T07:46:22.810Z,13.50
2023-03-22T07:47:39.581Z,13.60
2023-03-22T07:48:24.735Z,14.20
2023-03-22T07:49:22.690Z,14.60
2023-03-22T07:50:22.636Z,15.10
2023-03-22T07:51:22.647Z,14.70
2023-03-22T07:52:22.640Z,13.10
2023-03-22T07:53:22.653Z,13.50
2023-03-22T07:54:32.867Z,13.30
2023-03-22T07:55:24.640Z,13.60
2023-03-22T07:56:22.627Z,13.70
2023-03-22T07:57:22.620Z,13.30
2023-03-22T07:58:22.756Z,13.30
2023-03-22T07:59:22.661Z,13.70
2023-03-22T08:00:22.626Z,14.50
2023-03-22T08:01:22.615Z,14.30
2023-03-22T08:02:22.687Z,15.40
2023-03-22T08:03:22.586Z,15.20
2023-03-22T08:04:23.657Z,14.50
2023-03-22T08:05:22.618Z,14.40
2023-03-22T08:06:22.572Z,13.90
2023-03-22T08:07:22.656Z,14.10
2023-03-22T08:08:22.564Z,14.40
2023-03-22T08:09:22.610Z,14.40
2023-03-22T08:10:22.567Z,13.70
2023-03-22T08:11:22.554Z,13.40
2023-03-22T08:12:22.622Z,13.60
2023-03-22T08:13:23.423Z,13.20
2023-03-22T08:14:35.490Z,12.90
2023-03-22T08:15:24.558Z,13.80
2023-03-22T08:16:22.614Z,12.70
2023-03-22T08:17:22.600Z,12.90
2023-03-22T08:18:22.541Z,12.60
2023-03-22T08:19:22.545Z,12.60
2023-03-22T08:20:22.553Z,12.30
2023-03-22T08:21:22.504Z,13.30
2023-03-22T08:22:22.560Z,12.40
2023-03-22T08:23:31.629Z,12.40
2023-03-22T08:24:24.724Z,12.50
2023-03-22T08:25:22.499Z,12.30
2023-03-22T08:26:22.507Z,12.20
2023-03-22T08:27:22.607Z,12.00
2023-03-22T08:28:22.517Z,12.30
2023-03-22T08:29:22.514Z,11.70
2023-03-22T08:30:22.522Z,12.40
2023-03-22T08:31:22.680Z,12.20
2023-03-22T08:32:22.472Z,11.90
2023-03-22T08:33:22.592Z,11.60
2023-03-22T08:34:22.454Z,11.60
2023-03-22T08:35:22.502Z,11.60
2023-03-22T08:36:22.449Z,11.10
2023-03-22T08:37:22.484Z,10.80
2023-03-22T08:38:23.483Z,11.70
2023-03-22T08:39:22.436Z,11.00
2023-03-22T08:40:22.481Z,11.00
2023-03-22T08:41:22.444Z,10.30
2023-03-22T08:42:22.472Z,10.80
2023-03-22T08:43:22.509Z,11.60
2023-03-22T08:44:22.447Z,11.70
2023-03-22T08:45:22.417Z,10.70
2023-03-22T08:46:22.497Z,10.10
2023-03-22T08:47:22.393Z,10.30
2023-03-22T08:48:22.442Z,11.10
2023-03-22T08:49:22.483Z,10.10
2023-03-22T08:50:22.377Z,10.10
2023-03-22T08:51:22.405Z,10.30
2023-03-22T08:52:22.340Z,10.50
2023-03-22T08:53:22.345Z,9.70
2023-03-22T08:54:23.364Z,10.10
2023-03-22T08:55:22.348Z,10.10
2023-03-22T08:56:22.332Z,10.90
2023-03-22T08:57:22.335Z,10.40
2023-03-22T08:58:22.327Z,10.10
2023-03-22T08:59:22.321Z,10.00
2023-03-22T09:00:22.346Z,9.60
2023-03-22T09:01:22.435Z,10.70
2023-03-22T09:02:22.366Z,9.60
2023-03-22T09:03:22.506Z,10.10
2023-03-22T09:04:22.348Z,10.70
2023-03-22T09:05:22.349Z,10.20
2023-03-22T09:06:22.306Z,9.40
2023-03-22T09:07:22.355Z,9.30
2023-03-22T09:08:22.315Z,9.10
2023-03-22T09:09:22.264Z,9.80
2023-03-22T09:10:22.299Z,9.50
2023-03-22T09:11:22.266Z,10.40
2023-03-22T09:12:22.286Z,9.80
2023-03-22T09:13:22.247Z,9.90
2023-03-22T09:14:22.272Z,9.90
2023-03-22T09:15:22.269Z,10.20
2023-03-22T09:16:22.288Z,9.90
2023-03-22T09:17:22.611Z,10.60
2023-03-22T09:18:23.329Z,10.00
2023-03-22T09:19:22.208Z,10.30
2023-03-22T09:20:22.199Z,9.50
2023-03-22T09:21:22.217Z,9.80
2023-03-22T09:22:22.194Z,9.10
2023-03-22T09:23:22.219Z,9.30
2023-03-22T09:24:22.190Z,8.70
2023-03-22T09:25:22.212Z,10.00
2023-03-22T09:26:22.181Z,9.70
2023-03-22T09:27:22.184Z,8.00
2023-03-22T09:28:22.238Z,8.30
2023-03-22T09:29:22.251Z,8.00
2023-03-22T09:30:22.141Z,8.10
2023-03-22T09:31:22.197Z,7.80
2023-03-22T09:32:22.182Z,7.00
2023-03-22T09:33:22.187Z,7.50
2023-03-22T09:34:22.143Z,6.30
2023-03-22T09:35:22.171Z,6.90
2023-03-22T09:36:22.139Z,7.00
2023-03-22T09:37:22.095Z,6.60
2023-03-22T09:38:22.137Z,7.30
2023-03-22T09:39:22.100Z,7.00
2023-03-22T09:40:22.126Z,6.70
2023-03-22T09:41:22.103Z,6.80
2023-03-22T09:42:22.093Z,5.90
2023-03-22T09:43:22.077Z,5.90
2023-03-22T09:44:22.095Z,5.60
2023-03-22T09:45:22.106Z,5.70
2023-03-22T09:46:22.269Z,5.70
2023-03-22T09:47:22.081Z,5.50
2023-03-22T09:48:22.081Z,5.80
2023-03-22T09:49:22.072Z,5.40
2023-03-22T09:50:22.108Z,5.60
2023-03-22T09:51:22.007Z,4.90
2023-03-22T09:52:22.116Z,5.10
2023-03-22T09:53:22.060Z,5.10
2023-03-22T09:54:21.994Z,5.30
2023-03-22T09:55:21.983Z,5.30
2023-03-22T09:56:22.085Z,5.20
2023-03-22T09:57:21.976Z,5.10
2023-03-22T09:58:22.013Z,5.50
2023-03-22T09:59:21.975Z,5.70
2023-03-22T10:00:22.071Z,4.90
2023-03-22T10:01:22.199Z,5.30
2023-03-22T10:02:21.992Z,5.20
2023-03-22T10:03:21.941Z,5.40
2023-03-22T10:04:22.032Z,5.10
2023-03-22T10:05:21.924Z,4.90
2023-03-22T10:06:21.936Z,4.50
2023-03-22T10:07:21.921Z,5.00
2023-03-22T10:08:21.907Z,4.80
2023-03-22T10:09:21.905Z,4.80
2023-03-22T10:10:21.940Z,4.60
2023-03-22T10:11:21.925Z,3.90
2023-03-22T10:12:21.883Z,4.10
2023-03-22T10:13:21.873Z,4.40
2023-03-22T10:14:21.879Z,4.40
2023-03-22T10:15:21.900Z,3.80
2023-03-22T10:16:21.911Z,3.40
2023-03-22T10:17:21.920Z,4.20
2023-03-22T10:18:21.852Z,3.70
2023-03-22T10:19:21.861Z,3.70
2023-03-22T10:20:21.900Z,3.90
2023-03-22T10:21:21.928Z,4.10
2023-03-22T10:22:21.861Z,4.00
2023-03-22T10:23:21.810Z,3.70
2023-03-22T10:24:21.845Z,3.90
2023-03-22T10:25:21.808Z,3.50
2023-03-22T10:26:21.924Z,3.40
2023-03-22T10:27:21.835Z,3.80
2023-03-22T10:28:21.796Z,3.70
2023-03-22T10:29:21.776Z,3.90
2023-03-22T10:30:21.773Z,3.70
2023-03-22T10:31:21.790Z,3.80
2023-03-22T10:32:21.815Z,4.40
2023-03-22T10:33:21.811Z,4.10
2023-03-22T10:34:21.756Z,4.10
2023-03-22T10:35:21.799Z,4.00
2023-03-22T10:36:21.739Z,4.90
2023-03-22T10:37:21.728Z,4.50
2023-03-22T10:38:21.730Z,4.80
2023-03-22T10:39:21.787Z,5.20
2023-03-22T10:40:21.704Z,5.10
2023-03-22T10:41:21.711Z,5.10
2023-03-22T10:42:21.682Z,4.70
2023-03-22T10:43:21.714Z,5.10
2023-03-22T10:44:21.693Z,4.70
2023-03-22T10:45:21.669Z,4.80
2023-03-22T10:46:21.687Z,4.70
2023-03-22T10:47:21.670Z,5.00
2023-03-22T10:48:21.779Z,4.30
2023-03-22T10:49:21.670Z,4.90
2023-03-22T10:50:21.662Z,4.80
2023-03-22T10:51:21.636Z,4.30
2023-03-22T10:52:21.625Z,4.40
2023-03-22T10:53:21.642Z,3.80
2023-03-22T10:54:21.675Z,4.50
2023-03-22T10:55:21.645Z,4.70
2023-03-22T10:56:21.639Z,3.80
2023-03-22T10:57:21.642Z,4.00
2023-03-22T10:58:21.577Z,3.80
2023-03-22T10:59:21.631Z,3.60
2023-03-22T11:00:21.811Z,3.10
2023-03-22T11:01:21.641Z,3.20
2023-03-22T11:02:21.872Z,3.00
2023-03-22T11:03:21.581Z,3.10
2023-03-22T11:04:21.576Z,2.50
2023-03-22T11:05:21.556Z,2.80
2023-03-22T11:06:21.551Z,2.90
2023-03-22T11:07:21.543Z,2.80
2023-03-22T11:08:21.537Z,2.60
2023-03-22T11:09:21.577Z,2.60
2023-03-22T11:10:21.605Z,2.50
2023-03-22T11:11:21.506Z,2.40
2023-03-22T11:12:21.508Z,2.30
2023-03-22T11:13:21.506Z,2.00
2023-03-22T11:14:21.482Z,2.10
2023-03-22T11:15:21.518Z,2.40
2023-03-22T11:16:21.569Z,2.10
2023-03-22T11:17:21.452Z,1.80
2023-03-22T11:18:21.436Z,1.80
2023-03-22T11:19:21.446Z,2.20
2023-03-22T11:20:21.485Z,1.90
2023-03-22T11:21:21.450Z,1.90
2023-03-22T11:22:21.424Z,1.60
2023-03-22T11:23:21.403Z,1.70
2023-03-22T11:24:22.415Z,2.30
2023-03-22T11:25:21.392Z,1.60
2023-03-22T11:26:21.434Z,1.50
2023-03-22T11:27:21.379Z,1.90
2023-03-22T11:28:21.375Z,1.70
2023-03-22T11:29:21.381Z,1.60
2023-03-22T11:30:21.384Z,1.50
2023-03-22T11:31:21.410Z,1.60
2023-03-22T11:32:21.411Z,1.60
2023-03-22T11:33:21.358Z,1.40
2023-03-22T11:34:21.330Z,1.80
2023-03-22T11:35:21.424Z,1.60
2023-03-22T11:36:21.367Z,1.70
2023-03-22T11:37:21.398Z,1.50
2023-03-22T11:38:21.353Z,1.60
2023-03-22T11:39:21.293Z,1.40
2023-03-22T11:40:21.321Z,1.60
2023-03-22T11:41:21.296Z,1.70
2023-03-22T11:42:21.282Z,1.60
2023-03-22T11:43:21.310Z,1.80
2023-03-22T11:44:21.265Z,1.60
2023-03-22T11:45:21.262Z,1.80
2023-03-22T11:46:21.271Z,1.80
2023-03-22T11:47:21.242Z,1.80
2023-03-22T11:48:21.404Z,1.60
2023-03-22T11:49:21.234Z,1.80
2023-03-22T11:50:21.228Z,1.60
2023-03-22T11:51:21.216Z,1.70
2023-03-22T11:52:21.188Z,1.80
2023-03-22T11:53:21.236Z,1.80
2023-03-22T11:54:21.209Z,1.60
2023-03-22T11:55:21.189Z,2.10
2023-03-22T11:56:21.163Z,1.80
2023-03-22T11:57:21.180Z,2.00
2023-03-22T11:58:22.416Z,2.00
2023-03-22T11:59:21.181Z,1.80
2023-03-22T12:00:21.161Z,2.30
2023-03-22T12:01:21.118Z,2.50
2023-03-22T12:02:21.175Z,2.40
2023-03-22T12:03:21.275Z,2.20
2023-03-22T12:04:21.178Z,2.00
2023-03-22T12:05:21.239Z,2.40
2023-03-22T12:06:21.143Z,2.20
2023-03-22T12:07:21.086Z,2.10
2023-03-22T12:08:21.070Z,2.00
2023-03-22T12:09:21.107Z,2.10
2023-03-22T12:10:21.059Z,1.80
2023-03-22T12:11:21.095Z,1.80
2023-03-22T12:12:21.042Z,1.60
2023-03-22T12:13:21.039Z,1.80
2023-03-22T12:14:21.072Z,1.90
2023-03-22T12:15:21.055Z,1.60
2023-03-22T12:16:22.327Z,1.60
2023-03-22T12:17:21.013Z,1.40
2023-03-22T12:18:21.088Z,1.50
2023-03-22T12:19:21.012Z,1.40
2023-03-22T12:20:21.018Z,1.50
2023-03-22T12:21:20.988Z,1.30
2023-03-22T12:22:20.962Z,1.50
2023-03-22T12:23:20.992Z,1.80
2023-03-22T12:24:21.006Z,1.70
2023-03-22T12:25:20.966Z,1.60
2023-03-22T12:26:20.942Z,1.50
2023-03-22T12:27:20.960Z,1.50
2023-03-22T12:28:20.921Z,1.50
2023-03-22T12:29:20.928Z,1.70
2023-03-22T12:30:20.948Z,1.60
2023-03-22T12:31:20.947Z,1.40
2023-03-22T12:32:20.920Z,1.50
2023-03-22T12:33:20.953Z,1.60
2023-03-22T12:34:20.874Z,1.50
2023-03-22T12:35:20.960Z,1.50
2023-03-22T12:36:20.926Z,1.50
2023-03-22T12:37:20.849Z,1.50
2023-03-22T12:38:20.855Z,1.60
2023-03-22T12:39:20.837Z,1.60
2023-03-22T12:40:20.848Z,1.60
2023-03-22T12:41:20.863Z,1.60
2023-03-22T12:42:20.841Z,1.20
2023-03-22T12:43:20.821Z,1.10
2023-03-22T12:44:20.831Z,1.30
2023-03-22T12:45:20.792Z,1.30
2023-03-22T12:46:20.862Z,1.50
2023-03-22T12:47:20.777Z,1.30
2023-03-22T12:48:20.864Z,1.30
2023-03-22T12:49:20.808Z,1.50
2023-03-22T12:50:20.766Z,1.30
2023-03-22T12:51:20.765Z,1.40
2023-03-22T12:52:20.747Z,1.40
2023-03-22T12:53:20.734Z,1.60
2023-03-22T12:54:20.733Z,1.50
2023-03-22T12:55:20.714Z,1.40
2023-03-22T12:56:20.719Z,1.50
2023-03-22T12:57:20.729Z,1.50
2023-03-22T12:58:20.685Z,1.70
2023-03-22T12:59:20.753Z,1.90
2023-03-22T13:00:20.902Z,1.60